SCYL weather

Licán Airport
Puyehue, Los Ríos Region, Chile

Public forecast

Using degrees Celsius for public forecast. Weather courtesy of forecast.io.

Closest aviation weather report (METAR) to Licán Airport

Closest report is Cañal Bajo Carlos - Hott Siebert Airport, 29.7 nm (54.9 km) W. Retrieved 2019/10/22 13:00 UTC (35 minutes ago):

SCJO 221300Z 20007KT 9999 SCT015 09/06 Q1024

Closest aviation forecast (TAF) to Licán Airport

Closest forecast is Cañal Bajo Carlos - Hott Siebert Airport, 29.7 nm (54.9 km) W. Retrieved 2019/10/22 12:33 UTC (1 hour ago):

TAF SCJO 221018Z 2212/2224 18015KT CAVOK TN04/2212Z TX15/2219Z BECMG 2222/2224 18010KT